Airfield :
LOGIN :

Register | Disclaimer

   EN    FR    IT 

 










Legend :    VFR   Marginal VFR   IFR   Intensive IFR   Very Intensive IFR
Visi :
Ceiling :
>= 8 km
>= 3000ft
5 to 8 km
1000 to 3000 ft
1500m to 5 km
500 to 1000 ft
800 to 1500m
200 to 500 ft
< 800m
< 200 ft
Symbols :   Thunderstorms  Fog  Heavy snow  Heavy precipitations  Wind > 20 kt
SIGMETs :     Misc.  Thunderstorms  Icing  Turbulence  Mountain Waves  Volcanic Ashes






- Airport Elevation : 659 ft
- IATA code : LYN


LFLY - Lyon Bron

CURRENT METAR :
  • 021830Z AUTO 01006KT 340V040 CAVOK 23/10 Q1016 NOSIG

EXPIRED METARs :
  • 021800Z AUTO 04005KT CAVOK 23/10 Q1016 NOSIG
  • 021730Z AUTO 04004KT 350V080 CAVOK 24/10 Q1016 NOSIG
  • 021700Z AUTO 32005KT 280V350 CAVOK 24/10 Q1016 NOSIG
  • 021630Z AUTO 02005KT 340V050 CAVOK 24/11 Q1016 NOSIG

TAF TAF LFLY
Valid from the 02 at 18:00 until the 03 at 18:00 UTC


021700Z 0218/0318 04005KT CAVOK
BECMG 0219/0222 VRB03KT
BECMG 0310/0312 25007KT
PROB40
TEMPO 0312/0318 35010KT SHRA SCT050TCU OVC070
ATIS : +33 4 72 15 87 96



MET'MAP, your aeronautical weather chart ! - Copyright ORBIFLY December 2007 - Disclaimer

ORBIFLY MET'MAP TEAM :

Programming & Development : Alexandra Zaïnal
Concept & original design : Baudouin d'Aumeries
Assistance for programming : Marc-Olivier Méhu
Technical & hardware support : Manuel Goepfert

Contact : metmap@orbifly.com




SOURCES & CREDITS :

   NOAA